Time;durP1;ratioP1;P1;durP2;ratioP2;P2;SDS_P1;SDS_P2;PMS_P1;PMS_P2;Temp;Humidity;BMP_temperature;BMP_pressure;BME280_temperature;BME280_humidity;BME280_pressure;Samples;Min_cycle;Max_cycle;Signal;HPM_P1;HPM_P2
2023/12/15 00:00:19;;;;;;;5.57;3.00;;;4.70;34.80;;;;;;5032407;28;20190;-74
2023/12/15 00:02:45;;;;;;;5.80;3.83;;;4.60;33.80;;;;;;5032215;28;20300;-73
2023/12/15 00:05:11;;;;;;;4.10;3.50;;;4.60;34.30;;;;;;5032226;28;20508;-73
2023/12/15 00:07:37;;;;;;;5.83;3.57;;;4.60;35.10;;;;;;5032188;28;20499;-73
2023/12/15 00:10:03;;;;;;;4.60;3.43;;;4.60;34.20;;;;;;5032214;28;20531;-74
2023/12/15 00:12:28;;;;;;;5.43;4.07;;;4.60;35.20;;;;;;5032122;28;20217;-74
2023/12/15 00:14:54;;;;;;;5.90;4.30;;;4.60;35.20;;;;;;5032367;28;20447;-74
2023/12/15 00:17:19;;;;;;;5.27;3.93;;;4.60;35.00;;;;;;5032026;28;20663;-74
2023/12/15 00:19:45;;;;;;;5.60;3.60;;;4.60;36.30;;;;;;5032174;28;20185;-74
2023/12/15 00:22:11;;;;;;;6.40;4.40;;;4.50;35.60;;;;;;5032154;28;20560;-73
2023/12/15 00:24:36;;;;;;;4.90;3.50;;;4.50;35.80;;;;;;5031761;28;20198;-72
2023/12/15 00:27:02;;;;;;;4.80;3.33;;;4.50;36.90;;;;;;5031961;28;20215;-73
2023/12/15 00:29:28;;;;;;;5.63;4.00;;;4.50;37.70;;;;;;5031915;28;20206;-74
2023/12/15 00:31:53;;;;;;;5.97;4.07;;;4.60;37.80;;;;;;5014220;28;20426;-73
2023/12/15 00:34:19;;;;;;;6.90;5.90;;;4.50;36.60;;;;;;5014488;28;20229;-73
2023/12/15 00:36:45;;;;;;;7.40;4.90;;;4.50;37.70;;;;;;5032398;28;20206;-73
2023/12/15 00:39:10;;;;;;;8.07;4.67;;;4.40;38.20;;;;;;5032370;28;20177;-74
2023/12/15 00:41:36;;;;;;;7.47;4.90;;;4.50;38.90;;;;;;5032357;28;20185;-73
2023/12/15 00:44:04;;;;;;;7.20;4.20;;;4.50;37.80;;;;;;5032781;28;20183;-74
2023/12/15 00:46:30;;;;;;;5.60;4.00;;;4.40;39.00;;;;;;5032045;28;20551;-74
2023/12/15 00:48:56;;;;;;;5.10;4.07;;;4.40;40.10;;;;;;5032048;28;20461;-74
2023/12/15 00:51:21;;;;;;;8.70;4.03;;;4.40;41.00;;;;;;5032183;28;20444;-74
2023/12/15 00:53:47;;;;;;;7.07;4.27;;;4.30;40.50;;;;;;5014008;28;20233;-74
2023/12/15 00:56:12;;;;;;;6.83;4.63;;;4.40;41.90;;;;;;5031857;28;20274;-72
2023/12/15 00:58:38;;;;;;;10.30;4.80;;;4.30;39.60;;;;;;5031521;28;20222;-72
2023/12/15 01:01:04;;;;;;;6.17;4.47;;;4.40;41.40;;;;;;5031853;28;20186;-72
2023/12/15 01:03:30;;;;;;;5.73;4.10;;;4.40;39.70;;;;;;5031370;28;20262;-72
2023/12/15 01:05:56;;;;;;;7.63;4.60;;;4.40;39.50;;;;;;5035504;28;20418;-72
2023/12/15 01:08:22;;;;;;;5.30;3.57;;;4.50;38.70;;;;;;5035642;28;20913;-72
2023/12/15 01:10:48;;;;;;;6.20;3.40;;;4.50;37.70;;;;;;5035703;28;20226;-73
2023/12/15 01:13:14;;;;;;;5.07;4.00;;;4.40;37.60;;;;;;5035985;28;20420;-73
2023/12/15 01:15:40;;;;;;;5.10;3.73;;;4.50;37.70;;;;;;5035611;28;20410;-73
2023/12/15 01:18:05;;;;;;;5.43;3.57;;;4.50;36.50;;;;;;5035704;28;20547;-73
2023/12/15 01:20:31;;;;;;;9.13;5.00;;;4.50;36.30;;;;;;5017848;28;20237;-73
2023/12/15 01:22:56;;;;;;;5.60;3.60;;;4.50;37.50;;;;;;5036491;28;20176;-73
2023/12/15 01:25:22;;;;;;;6.00;3.80;;;4.50;37.70;;;;;;5035323;28;20676;-73
2023/12/15 01:27:47;;;;;;;6.63;4.80;;;4.50;36.20;;;;;;5034961;28;20284;-74
2023/12/15 01:30:13;;;;;;;5.37;3.60;;;4.40;36.10;;;;;;5035360;28;20183;-72
2023/12/15 01:32:38;;;;;;;5.53;3.47;;;4.50;37.20;;;;;;5035333;28;20292;-73
2023/12/15 01:35:05;;;;;;;6.93;4.50;;;4.50;37.70;;;;;;5017532;28;20205;-72
2023/12/15 01:37:31;;;;;;;6.90;4.73;;;4.50;37.70;;;;;;5034905;28;20200;-72
2023/12/15 01:39:56;;;;;;;6.93;3.80;;;4.50;35.60;;;;;;5035468;28;20414;-71
2023/12/15 01:42:22;;;;;;;5.90;4.27;;;4.50;35.30;;;;;;5034879;28;20208;-73
2023/12/15 01:44:48;;;;;;;7.13;4.50;;;4.50;34.70;;;;;;5034887;28;20234;-73
2023/12/15 01:47:17;;;;;;;7.53;4.50;;;4.40;34.70;;;;;;5034493;28;20517;-70
2023/12/15 01:49:43;;;;;;;6.13;3.30;;;4.50;34.70;;;;;;5034772;28;20175;-71
2023/12/15 01:52:09;;;;;;;8.37;3.10;;;4.60;33.00;;;;;;5034766;28;20424;-70
2023/12/15 01:54:34;;;;;;;6.13;4.40;;;4.60;31.20;;;;;;5034821;28;20905;-70
2023/12/15 01:57:00;;;;;;;7.67;4.50;;;4.50;32.40;;;;;;5016642;28;20207;-70
2023/12/15 01:59:25;;;;;;;6.53;4.47;;;4.50;32.50;;;;;;5016710;28;20178;-71
2023/12/15 02:01:51;;;;;;;7.17;4.60;;;4.50;34.00;;;;;;5034555;28;20444;-70
2023/12/15 02:04:17;;;;;;;5.40;4.20;;;4.50;34.70;;;;;;5034579;28;20176;-71
2023/12/15 02:06:42;;;;;;;5.80;4.00;;;4.60;33.10;;;;;;5016830;28;20196;-70
2023/12/15 02:09:08;;;;;;;9.30;4.53;;;4.60;33.50;;;;;;5034209;28;20740;-71
2023/12/15 02:11:33;;;;;;;6.13;4.27;;;4.50;32.50;;;;;;5034393;28;20659;-71
2023/12/15 02:13:59;;;;;;;4.37;3.03;;;4.50;33.60;;;;;;5034390;28;20171;-71
2023/12/15 02:16:24;;;;;;;5.73;4.47;;;4.50;34.10;;;;;;5033063;28;20171;-72
2023/12/15 02:18:50;;;;;;;7.60;4.40;;;4.60;33.50;;;;;;5016532;28;20180;-72
2023/12/15 02:21:15;;;;;;;5.57;4.50;;;4.50;33.30;;;;;;5034293;28;20222;-72
2023/12/15 02:23:41;;;;;;;7.63;4.67;;;4.50;34.10;;;;;;5034205;28;20183;-73
2023/12/15 02:26:06;;;;;;;7.30;4.53;;;4.50;33.00;;;;;;5016380;28;20187;-73
2023/12/15 02:28:32;;;;;;;6.27;4.70;;;4.40;33.80;;;;;;5033835;28;20217;-73
2023/12/15 02:30:57;;;;;;;6.63;4.43;;;4.50;35.20;;;;;;5034084;28;20245;-73
2023/12/15 02:33:23;;;;;;;8.50;5.77;;;4.60;34.20;;;;;;5034206;28;20229;-72
2023/12/15 02:35:50;;;;;;;9.33;5.57;;;4.60;33.40;;;;;;5033962;28;20254;-73
2023/12/15 02:38:18;;;;;;;6.67;4.87;;;4.60;33.00;;;;;;5033734;28;20206;-73
2023/12/15 02:40:44;;;;;;;6.67;3.70;;;4.60;33.90;;;;;;5033895;28;20424;-73
2023/12/15 02:43:10;;;;;;;8.13;4.50;;;4.60;33.10;;;;;;5033850;28;20417;-72
2023/12/15 02:45:36;;;;;;;5.63;4.40;;;4.60;32.90;;;;;;5033903;28;20778;-73
2023/12/15 02:48:03;;;;;;;7.23;4.60;;;4.60;32.60;;;;;;5033363;28;20461;-72
2023/12/15 02:50:28;;;;;;;5.77;4.33;;;4.60;31.60;;;;;;5033692;28;20421;-72
2023/12/15 02:52:54;;;;;;;4.87;3.80;;;4.60;32.60;;;;;;5033614;28;20575;-72
2023/12/15 02:55:19;;;;;;;5.20;3.37;;;4.50;32.10;;;;;;5033533;28;20551;-73
2023/12/15 02:57:45;;;;;;;6.43;4.77;;;4.50;32.50;;;;;;5033166;28;20218;-73
2023/12/15 03:00:11;;;;;;;6.40;4.63;;;4.40;32.50;;;;;;5033446;28;20190;-72
2023/12/15 03:02:39;;;;;;;6.40;3.93;;;4.40;32.50;;;;;;5033545;28;20262;-72
2023/12/15 03:05:05;;;;;;;7.73;3.80;;;4.30;32.90;;;;;;5033416;28;20505;-72
2023/12/15 03:07:30;;;;;;;7.00;4.53;;;4.30;33.50;;;;;;5032986;28;20544;-72
2023/12/15 03:09:56;;;;;;;7.97;4.73;;;4.20;34.80;;;;;;5033273;28;21025;-72
2023/12/15 03:12:22;;;;;;;5.00;3.70;;;4.20;35.80;;;;;;5033852;28;20199;-72
2023/12/15 03:14:48;;;;;;;6.03;4.13;;;4.30;36.20;;;;;;5033599;28;20635;-72
2023/12/15 03:17:16;;;;;;;5.17;4.03;;;4.30;35.60;;;;;;5033023;28;20460;-72
2023/12/15 03:19:41;;;;;;;6.57;4.83;;;4.20;36.50;;;;;;5033024;28;20552;-72
2023/12/15 03:22:07;;;;;;;6.50;4.80;;;4.30;37.50;;;;;;5015232;28;20422;-72
2023/12/15 03:24:33;;;;;;;16.63;6.30;;;4.30;36.50;;;;;;5032934;28;20424;-73
2023/12/15 03:26:58;;;;;;;9.20;5.47;;;4.30;36.70;;;;;;5032544;28;20226;-73
2023/12/15 03:29:24;;;;;;;7.57;5.53;;;4.20;36.40;;;;;;5032783;28;20656;-72
2023/12/15 03:31:49;;;;;;;8.70;5.97;;;4.20;37.50;;;;;;5032941;28;20179;-73
2023/12/15 03:34:15;;;;;;;6.07;4.83;;;4.30;37.50;;;;;;5032799;28;20658;-72
2023/12/15 03:36:40;;;;;;;7.80;4.77;;;4.40;37.60;;;;;;5032779;28;20241;-73
2023/12/15 03:39:07;;;;;;;8.97;6.73;;;4.30;37.50;;;;;;5032546;28;20182;-73
2023/12/15 03:41:32;;;;;;;9.10;4.60;;;4.30;36.20;;;;;;5032627;28;20176;-73
2023/12/15 03:43:58;;;;;;;6.97;4.57;;;4.30;37.50;;;;;;5032682;28;20468;-73
2023/12/15 03:46:24;;;;;;;7.27;5.37;;;4.30;36.60;;;;;;5032374;28;20181;-74
2023/12/15 03:48:49;;;;;;;7.93;5.63;;;4.40;37.60;;;;;;5032249;28;20203;-74
2023/12/15 03:51:15;;;;;;;9.13;6.33;;;4.50;36.60;;;;;;5032494;28;20257;-73
2023/12/15 03:53:40;;;;;;;9.07;4.97;;;4.50;35.80;;;;;;5032375;28;20631;-73
2023/12/15 03:56:09;;;;;;;6.70;4.70;;;4.50;36.30;;;;;;5032547;28;20254;-73
2023/12/15 03:58:34;;;;;;;6.90;4.93;;;4.60;35.20;;;;;;5054718;22;20231;-70
2023/12/15 04:01:00;;;;;;;8.10;5.90;;;4.60;35.00;;;;;;5031962;28;20842;-70
2023/12/15 04:03:26;;;;;;;6.80;5.07;;;4.60;35.00;;;;;;5032025;28;20265;-71
2023/12/15 04:05:52;;;;;;;8.93;5.73;;;4.60;33.60;;;;;;5031960;28;20222;-71
2023/12/15 04:08:17;;;;;;;7.43;5.47;;;4.60;34.10;;;;;;5031473;28;20454;-71
2023/12/15 04:10:43;;;;;;;6.80;5.10;;;4.60;32.90;;;;;;5031703;28;20211;-71
2023/12/15 04:13:08;;;;;;;6.63;3.80;;;4.50;30.30;;;;;;5031960;28;20179;-70
2023/12/15 04:15:34;;;;;;;6.93;5.07;;;4.50;31.60;;;;;;5013872;28;20657;-70
2023/12/15 04:18:04;;;;;;;6.50;3.60;;;4.50;30.00;;;;;;5031453;28;20226;-69
2023/12/15 04:20:30;;;;;;;5.43;3.47;;;4.60;27.40;;;;;;5031593;28;20179;-69
2023/12/15 04:22:55;;;;;;;6.30;4.20;;;4.60;26.70;;;;;;5031614;28;20495;-71
2023/12/15 04:25:21;;;;;;;6.10;4.10;;;4.60;26.80;;;;;;5031833;28;20436;-71
2023/12/15 04:27:46;;;;;;;6.20;3.70;;;4.60;26.30;;;;;;5031170;28;20348;-72
2023/12/15 04:30:12;;;;;;;10.50;3.80;;;4.60;24.90;;;;;;5013751;28;20207;-70
2023/12/15 04:32:38;;;;;;;4.80;3.40;;;4.60;24.10;;;;;;5031502;28;20425;-71
2023/12/15 04:35:04;;;;;;;5.03;2.90;;;4.60;24.10;;;;;;5031385;28;20179;-70
2023/12/15 04:37:29;;;;;;;4.53;3.60;;;4.70;24.10;;;;;;5031040;28;20566;-70
2023/12/15 04:39:55;;;;;;;5.40;3.37;;;4.60;24.10;;;;;;5031226;28;20424;-71
2023/12/15 04:42:20;;;;;;;4.63;3.40;;;4.60;24.10;;;;;;5031353;28;20172;-70
2023/12/15 04:44:46;;;;;;;5.23;3.80;;;4.60;23.40;;;;;;5031181;28;20175;-71
2023/12/15 04:47:11;;;;;;;5.00;3.80;;;4.60;24.00;;;;;;5031000;28;20191;-70
2023/12/15 04:49:38;;;;;;;4.73;3.60;;;4.70;23.50;;;;;;5031272;28;20179;-71
2023/12/15 04:52:04;;;;;;;5.43;3.23;;;4.60;21.50;;;;;;5031121;28;20175;-71
2023/12/15 04:54:30;;;;;;;5.90;3.67;;;4.60;22.40;;;;;;5031076;28;20897;-71
2023/12/15 04:56:55;;;;;;;5.43;4.50;;;4.60;23.00;;;;;;5030811;28;20183;-71
2023/12/15 04:59:21;;;;;;;6.10;4.63;;;4.60;24.10;;;;;;5013148;28;20183;-71
2023/12/15 05:01:46;;;;;;;7.20;4.40;;;4.60;25.40;;;;;;5030489;28;20202;-71
2023/12/15 05:04:12;;;;;;;6.70;4.67;;;4.60;25.70;;;;;;5030934;28;20203;-71
2023/12/15 05:06:37;;;;;;;6.80;3.93;;;4.60;26.10;;;;;;5030990;28;20471;-71
2023/12/15 05:09:08;;;;;;;4.77;3.00;;;4.60;26.30;;;;;;5030761;28;20319;-71
2023/12/15 05:11:34;;;;;;;6.50;4.27;;;4.70;26.60;;;;;;5031063;28;20179;-71
2023/12/15 05:14:00;;;;;;;4.87;3.90;;;4.70;26.60;;;;;;5013190;28;20421;-71
2023/12/15 05:16:26;;;;;;;6.60;5.00;;;4.70;27.20;;;;;;5013150;28;20418;-71
2023/12/15 05:18:52;;;;;;;6.57;4.80;;;4.70;25.90;;;;;;5030772;28;20440;-71
2023/12/15 05:21:18;;;;;;;8.33;6.00;;;4.60;26.40;;;;;;5030856;28;20406;-72
2023/12/15 05:23:44;;;;;;;6.07;4.10;;;4.60;26.30;;;;;;5030974;28;20536;-72
2023/12/15 05:26:12;;;;;;;4.43;3.33;;;4.60;25.40;;;;;;5030820;28;20473;-72
2023/12/15 05:28:37;;;;;;;5.90;3.73;;;4.50;25.60;;;;;;5030464;28;20698;-71
2023/12/15 05:31:03;;;;;;;5.27;4.03;;;4.50;25.10;;;;;;5030862;28;20453;-70
2023/12/15 05:33:29;;;;;;;5.47;3.80;;;4.50;25.90;;;;;;5030857;28;20255;-71
2023/12/15 05:35:54;;;;;;;5.33;3.30;;;4.60;26.20;;;;;;5012946;28;21031;-71
2023/12/15 05:38:20;;;;;;;5.93;4.57;;;4.50;26.80;;;;;;5012809;28;20286;-71
2023/12/15 05:40:45;;;;;;;6.63;3.90;;;4.50;27.80;;;;;;5030785;28;20176;-71
2023/12/15 05:43:11;;;;;;;4.60;3.40;;;4.60;27.80;;;;;;5012970;28;20183;-71
2023/12/15 05:45:37;;;;;;;5.50;3.80;;;4.60;27.50;;;;;;5030679;28;20180;-72
2023/12/15 05:48:02;;;;;;;7.67;4.37;;;4.60;28.10;;;;;;5013206;28;20214;-73
2023/12/15 05:50:28;;;;;;;5.40;4.20;;;4.60;28.10;;;;;;5033023;28;20247;-74
2023/12/15 05:52:53;;;;;;;6.43;5.43;;;4.60;27.00;;;;;;5034967;28;20234;-73
2023/12/15 05:55:19;;;;;;;5.60;3.60;;;4.60;27.10;;;;;;5034851;28;20220;-73
2023/12/15 05:57:45;;;;;;;10.80;4.93;;;4.60;28.10;;;;;;5034664;28;20216;-73
2023/12/15 06:00:12;;;;;;;4.67;3.37;;;4.60;27.30;;;;;;5035051;28;20750;-73
2023/12/15 06:02:37;;;;;;;10.73;6.30;;;4.60;27.80;;;;;;5034915;28;20482;-73
2023/12/15 06:05:03;;;;;;;5.97;4.83;;;4.70;27.20;;;;;;5034847;28;20689;-73
2023/12/15 06:07:31;;;;;;;7.03;4.20;;;4.70;26.10;;;;;;5034438;28;20290;-73
2023/12/15 06:09:57;;;;;;;6.63;4.17;;;4.70;26.20;;;;;;5017035;28;20184;-73
2023/12/15 06:12:22;;;;;;;6.83;4.73;;;4.70;25.80;;;;;;5034973;28;20837;-73
2023/12/15 06:14:48;;;;;;;7.83;5.33;;;4.60;24.10;;;;;;5017073;28;20378;-72
2023/12/15 06:17:13;;;;;;;8.13;5.87;;;4.60;25.20;;;;;;5016517;28;20250;-73
2023/12/15 06:19:41;;;;;;;6.10;3.97;;;4.60;24.50;;;;;;5034785;28;20222;-73
2023/12/15 06:22:07;;;;;;;5.27;4.33;;;4.70;24.10;;;;;;5034581;28;20612;-73
2023/12/15 06:24:32;;;;;;;6.30;4.23;;;4.70;24.10;;;;;;5016254;28;20470;-72
2023/12/15 06:26:58;;;;;;;5.17;4.30;;;4.70;24.10;;;;;;5033610;28;20199;-73
2023/12/15 06:29:23;;;;;;;7.13;4.47;;;4.70;24.50;;;;;;5033497;28;20179;-73
2023/12/15 06:31:49;;;;;;;6.33;5.10;;;4.70;25.10;;;;;;5033699;28;20178;-72
2023/12/15 06:34:15;;;;;;;5.37;4.07;;;4.70;24.60;;;;;;5033713;28;20593;-72
2023/12/15 06:36:40;;;;;;;6.83;5.27;;;4.70;24.60;;;;;;5015698;28;20767;-73
2023/12/15 06:39:06;;;;;;;10.47;7.10;;;4.70;25.10;;;;;;5033310;28;20677;-72
2023/12/15 06:41:32;;;;;;;6.60;4.70;;;4.70;23.00;;;;;;5015735;28;20603;-74
2023/12/15 06:43:58;;;;;;;8.07;4.73;;;4.50;21.00;;;;;;5033526;28;20590;-74
2023/12/15 06:46:24;;;;;;;6.60;4.90;;;4.40;22.60;;;;;;5033567;28;20262;-74
2023/12/15 06:48:49;;;;;;;8.00;5.97;;;4.40;22.40;;;;;;5033155;28;20603;-73
2023/12/15 06:51:15;;;;;;;9.40;5.33;;;4.40;23.70;;;;;;5033351;28;20282;-73
2023/12/15 06:53:41;;;;;;;6.53;5.30;;;4.50;24.00;;;;;;5033109;28;20185;-73
2023/12/15 06:56:07;;;;;;;7.03;4.97;;;4.50;24.00;;;;;;5033452;28;20210;-70
2023/12/15 06:58:32;;;;;;;9.80;6.73;;;4.60;23.60;;;;;;5033435;28;20211;-74
2023/12/15 07:00:58;;;;;;;7.77;4.83;;;4.70;22.80;;;;;;5033856;28;20438;-72
2023/12/15 07:03:23;;;;;;;8.30;5.87;;;4.50;23.10;;;;;;5032604;28;20253;-71
2023/12/15 07:05:49;;;;;;;8.40;7.10;;;4.60;24.00;;;;;;5033236;28;20181;-71
2023/12/15 07:08:14;;;;;;;7.77;6.10;;;4.50;24.00;;;;;;5033113;28;20243;-70
2023/12/15 07:10:40;;;;;;;9.07;5.73;;;4.60;24.10;;;;;;5033743;28;20674;-71
2023/12/15 07:13:06;;;;;;;10.23;6.73;;;4.60;24.40;;;;;;5033142;28;20207;-71
2023/12/15 07:15:32;;;;;;;9.17;6.97;;;4.60;24.10;;;;;;5033270;28;20262;-71
2023/12/15 07:17:57;;;;;;;8.20;6.33;;;4.60;23.30;;;;;;5032898;28;20294;-71
2023/12/15 07:20:25;;;;;;;9.30;5.73;;;4.60;24.40;;;;;;5033673;28;20429;-71
2023/12/15 07:22:51;;;;;;;12.13;6.90;;;4.60;24.00;;;;;;5015831;28;20214;-73
2023/12/15 07:25:16;;;;;;;15.40;5.63;;;4.70;24.00;;;;;;5015570;28;20833;-71
2023/12/15 07:27:42;;;;;;;7.77;5.73;;;4.70;22.70;;;;;;5033486;28;20470;-71
2023/12/15 07:30:08;;;;;;;8.77;5.57;;;4.70;22.90;;;;;;5033684;28;20789;-72
2023/12/15 07:32:34;;;;;;;11.60;6.77;;;4.70;23.00;;;;;;5033790;28;20178;-72
2023/12/15 07:35:00;;;;;;;6.60;5.43;;;4.70;23.00;;;;;;5033918;28;20905;-72
2023/12/15 07:37:25;;;;;;;9.07;5.00;;;4.70;24.10;;;;;;5034246;28;20241;-72
2023/12/15 07:39:51;;;;;;;9.50;6.73;;;4.80;23.30;;;;;;5034729;28;20417;-73
2023/12/15 07:42:16;;;;;;;8.10;5.63;;;4.90;23.00;;;;;;5016238;28;20281;-70
2023/12/15 07:44:42;;;;;;;8.43;6.10;;;4.80;23.20;;;;;;5015278;28;20186;-72
2023/12/15 07:47:07;;;;;;;10.20;6.73;;;4.90;22.40;;;;;;5015088;28;20225;-71
2023/12/15 07:49:34;;;;;;;9.80;6.63;;;4.80;21.40;;;;;;5032728;28;20182;-71
2023/12/15 07:52:01;;;;;;;9.30;6.10;;;4.80;22.00;;;;;;5032755;28;20625;-71
2023/12/15 07:54:27;;;;;;;10.23;5.10;;;4.90;22.40;;;;;;5014994;28;20473;-71
2023/12/15 07:56:52;;;;;;;9.60;7.07;;;4.90;21.70;;;;;;5032959;28;20417;-71
2023/12/15 07:59:18;;;;;;;8.20;5.47;;;5.00;22.10;;;;;;5015148;28;20405;-71
2023/12/15 08:01:52;;;;;;;6.73;5.10;;;5.10;22.00;;;;;;5032577;28;20650;-70
2023/12/15 08:04:18;;;;;;;7.70;5.50;;;5.10;20.70;;;;;;5014682;28;20343;-71
2023/12/15 08:06:44;;;;;;;7.00;6.07;;;5.00;21.50;;;;;;5032766;28;20536;-71
2023/12/15 08:09:09;;;;;;;6.80;5.13;;;5.10;21.20;;;;;;5014509;28;20473;-70
2023/12/15 08:11:35;;;;;;;6.37;4.70;;;5.10;21.90;;;;;;5014672;28;20444;-71
2023/12/15 08:14:03;;;;;;;9.30;6.10;;;5.20;22.20;;;;;;5031787;28;20176;-71
2023/12/15 08:16:30;;;;;;;7.67;5.70;;;5.10;21.40;;;;;;5032384;28;20179;-71
2023/12/15 08:18:56;;;;;;;11.30;6.77;;;5.30;21.30;;;;;;5032313;28;20480;-71
2023/12/15 08:21:22;;;;;;;9.90;7.03;;;5.30;20.30;;;;;;5032368;28;20790;-71
2023/12/15 08:23:47;;;;;;;11.40;6.57;;;5.40;18.80;;;;;;5032467;28;20471;-71
2023/12/15 08:26:25;;;;;;;7.90;5.40;;;5.40;19.00;;;;;;5032023;28;20651;-71
2023/12/15 08:28:53;;;;;;;9.13;6.53;;;5.50;19.60;;;;;;5031866;28;20561;-71
2023/12/15 08:31:18;;;;;;;10.60;7.20;;;5.50;19.10;;;;;;5031921;28;20425;-71
2023/12/15 08:33:44;;;;;;;9.93;6.87;;;5.60;18.60;;;;;;5032207;28;20403;-70
2023/12/15 08:36:10;;;;;;;13.30;6.77;;;5.70;17.70;;;;;;5014302;28;20171;-70
2023/12/15 08:38:35;;;;;;;10.67;7.20;;;5.70;18.80;;;;;;5014297;28;20203;-73
2023/12/15 08:41:02;;;;;;;8.60;5.97;;;5.90;18.70;;;;;;5032296;28;20418;-71
2023/12/15 08:43:28;;;;;;;12.13;6.93;;;6.00;18.80;;;;;;5032150;28;20429;-71
2023/12/15 08:45:54;;;;;;;10.17;8.03;;;6.10;17.90;;;;;;5014179;28;20427;-71
2023/12/15 08:48:19;;;;;;;8.53;6.30;;;6.20;17.10;;;;;;5031327;28;20908;-71
2023/12/15 08:50:45;;;;;;;9.87;6.17;;;6.20;14.80;;;;;;5031727;28;20646;-71
2023/12/15 08:53:12;;;;;;;7.40;5.50;;;6.20;13.00;;;;;;5031845;28;20175;-71
2023/12/15 08:55:38;;;;;;;8.83;7.23;;;6.20;14.90;;;;;;5031510;28;20642;-71
2023/12/15 08:58:03;;;;;;;9.20;5.80;;;6.40;14.10;;;;;;5013594;28;20470;-71
2023/12/15 09:00:29;;;;;;;8.87;5.93;;;6.50;12.60;;;;;;5014266;28;20440;-71
2023/12/15 09:02:54;;;;;;;10.23;6.50;;;6.60;12.60;;;;;;5032013;28;20612;-69
2023/12/15 09:05:23;;;;;;;7.93;5.40;;;6.70;10.70;;;;;;5031565;28;20191;-70
2023/12/15 09:07:50;;;;;;;9.03;6.77;;;6.70;11.20;;;;;;5031375;28;20208;-70
2023/12/15 09:10:16;;;;;;;7.90;4.90;;;6.80;8.70;;;;;;5031182;28;20467;-70
2023/12/15 09:12:42;;;;;;;8.77;4.93;;;6.70;10.70;;;;;;5031550;28;20414;-70
2023/12/15 09:15:07;;;;;;;6.73;5.20;;;6.60;9.00;;;;;;5013994;28;20177;-70
2023/12/15 09:17:33;;;;;;;7.70;5.27;;;6.50;10.10;;;;;;5030974;28;20274;-70
2023/12/15 09:19:58;;;;;;;9.00;5.47;;;6.50;9.20;;;;;;5031004;28;20603;-70
2023/12/15 09:22:24;;;;;;;7.17;5.97;;;6.70;10.00;;;;;;5031260;28;20305;-71
2023/12/15 09:24:51;;;;;;;8.00;5.50;;;6.70;9.80;;;;;;5013910;28;20674;-70
2023/12/15 09:27:17;;;;;;;5.30;4.17;;;6.90;9.70;;;;;;5034884;28;20215;-72
2023/12/15 09:29:43;;;;;;;7.97;4.50;;;6.80;9.70;;;;;;5035217;28;20399;-70
2023/12/15 09:32:08;;;;;;;7.60;5.67;;;6.80;8.40;;;;;;5017500;28;20172;-70
2023/12/15 09:34:34;;;;;;;5.90;4.50;;;6.80;8.40;;;;;;5035217;28;20522;-70
2023/12/15 09:37:00;;;;;;;8.60;5.27;;;6.90;8.50;;;;;;5035024;28;20435;-70
2023/12/15 09:39:25;;;;;;;6.73;4.47;;;6.80;8.70;;;;;;5034587;28;20204;-70
2023/12/15 09:41:51;;;;;;;8.23;5.50;;;6.90;8.40;;;;;;5034357;28;20259;-70
2023/12/15 09:44:18;;;;;;;6.60;4.20;;;6.80;8.40;;;;;;5017051;28;20177;-70
2023/12/15 09:46:44;;;;;;;9.20;4.43;;;6.90;8.40;;;;;;5034401;28;20169;-70
2023/12/15 09:49:14;;;;;;;8.57;4.73;;;6.70;8.30;;;;;;5029261;28;20824;-71
2023/12/15 09:51:51;;;;;;;7.40;5.13;;;6.70;9.60;;;;;;5030346;28;20426;-70
2023/12/15 09:54:18;;;;;;;7.40;4.97;;;6.80;9.40;;;;;;5030267;28;20843;-70
2023/12/15 09:56:44;;;;;;;6.93;4.10;;;6.70;9.70;;;;;;5030817;28;20502;-70
2023/12/15 09:59:10;;;;;;;6.13;4.60;;;6.60;10.20;;;;;;5053948;22;20490;-69
2023/12/15 10:01:37;;;;;;;7.27;3.33;;;6.60;9.20;;;;;;5030465;28;20414;-69
2023/12/15 10:04:06;;;;;;;7.40;5.07;;;6.60;9.60;;;;;;5030879;28;20268;-71
2023/12/15 10:06:34;;;;;;;7.50;5.40;;;6.90;8.40;;;;;;5034114;28;20964;-70
2023/12/15 10:09:00;;;;;;;6.60;4.90;;;7.00;9.10;;;;;;5034201;28;20509;-69
2023/12/15 10:11:27;;;;;;;6.50;4.40;;;7.00;8.50;;;;;;5034842;28;20408;-70
2023/12/15 10:13:54;;;;;;;8.20;4.60;;;7.20;7.50;;;;;;5034875;28;20543;-70
2023/12/15 10:16:20;;;;;;;6.80;4.13;;;7.20;8.30;;;;;;5034655;28;20446;-70
2023/12/15 10:18:46;;;;;;;6.30;4.33;;;7.00;7.60;;;;;;5034388;28;20447;-70
2023/12/15 10:21:12;;;;;;;5.40;3.90;;;7.00;8.00;;;;;;5034560;28;20419;-70
2023/12/15 10:23:38;;;;;;;5.83;4.00;;;6.90;9.10;;;;;;5034319;28;20407;-70
2023/12/15 10:26:05;;;;;;;7.13;3.53;;;6.80;9.50;;;;;;5034528;28;20550;-70
2023/12/15 10:28:40;;;;;;;7.87;5.10;;;6.80;10.30;;;;;;5034125;28;20203;-70
2023/12/15 10:31:06;;;;;;;7.03;4.73;;;6.90;10.90;;;;;;5034627;28;20406;-71
2023/12/15 10:33:35;;;;;;;8.10;4.77;;;7.10;9.70;;;;;;5034265;28;20443;-70
2023/12/15 10:36:02;;;;;;;7.70;5.00;;;7.30;8.70;;;;;;5034130;28;20775;-70
2023/12/15 10:38:31;;;;;;;7.30;5.30;;;7.20;8.00;;;;;;5015359;28;20543;-70
2023/12/15 10:40:57;;;;;;;7.20;4.67;;;7.20;8.60;;;;;;5034244;28;20420;-70
2023/12/15 10:43:23;;;;;;;7.33;4.47;;;7.40;8.80;;;;;;5034262;28;20949;-70
2023/12/15 10:45:51;;;;;;;10.23;5.20;;;7.40;7.50;;;;;;5016605;28;20424;-70
2023/12/15 10:48:18;;;;;;;11.03;4.83;;;7.60;6.80;;;;;;5036280;28;20205;-70
2023/12/15 10:50:48;;;;;;;5.57;4.53;;;7.70;6.40;;;;;;5034075;28;20503;-70
2023/12/15 10:53:14;;;;;;;8.03;5.40;;;7.80;5.20;;;;;;5034075;28;20554;-70
2023/12/15 10:55:46;;;;;;;5.87;4.40;;;7.80;4.50;;;;;;5033889;28;20781;-70
2023/12/15 10:58:12;;;;;;;7.73;4.60;;;7.70;4.70;;;;;;5033416;28;20452;-70
2023/12/15 11:00:39;;;;;;;6.50;4.63;;;7.70;5.90;;;;;;5034699;28;20447;-71
2023/12/15 11:03:10;;;;;;;7.10;4.47;;;7.80;4.50;;;;;;5034712;28;20491;-69
2023/12/15 11:05:37;;;;;;;6.43;5.00;;;7.60;4.40;;;;;;5033926;28;20424;-71
2023/12/15 11:08:03;;;;;;;8.10;5.40;;;7.70;6.80;;;;;;5033179;28;20463;-70
2023/12/15 11:10:28;;;;;;;5.80;4.00;;;7.90;4.60;;;;;;5033523;28;20421;-70
2023/12/15 11:12:54;;;;;;;5.97;4.60;;;7.90;4.60;;;;;;5033536;28;20417;-71
2023/12/15 11:15:22;;;;;;;5.80;4.40;;;7.70;3.90;;;;;;5033436;28;20177;-72
2023/12/15 11:17:53;;;;;;;5.53;3.87;;;7.80;4.50;;;;;;5015200;28;20228;-70
2023/12/15 11:20:26;;;;;;;7.33;4.33;;;7.90;4.60;;;;;;5033540;28;20416;-70
2023/12/15 11:23:00;;;;;;;10.50;5.20;;;7.70;4.50;;;;;;5033269;28;20409;-70
2023/12/15 11:25:30;;;;;;;6.07;4.37;;;7.60;4.50;;;;;;5033173;28;20409;-70
2023/12/15 11:28:10;;;;;;;6.47;4.80;;;7.80;5.40;;;;;;5015051;28;20461;-70
2023/12/15 11:30:41;;;;;;;5.17;3.60;;;7.50;5.00;;;;;;5033497;28;20414;-73
2023/12/15 11:33:31;;;;;;;6.63;4.80;;;7.50;5.80;;;;;;5032921;28;20496;-69
2023/12/15 11:36:05;;;;;;;5.63;4.57;;;7.70;5.80;;;;;;5032890;28;20405;-70
2023/12/15 11:38:30;;;;;;;6.13;3.63;;;7.70;4.50;;;;;;5032585;28;20429;-69
2023/12/15 11:40:57;;;;;;;6.40;4.50;;;7.70;5.60;;;;;;5032867;28;20424;-70
2023/12/15 11:43:26;;;;;;;6.20;3.77;;;7.80;4.50;;;;;;5032933;28;20639;-70
2023/12/15 11:45:53;;;;;;;4.90;3.77;;;7.80;4.50;;;;;;5032754;28;20513;-68
2023/12/15 11:48:19;;;;;;;5.83;4.00;;;8.10;5.20;;;;;;5032177;28;20992;-70
2023/12/15 11:50:45;;;;;;;5.03;3.73;;;8.40;2.80;;;;;;5032652;28;20406;-71
2023/12/15 11:53:14;;;;;;;7.23;3.93;;;8.30;1.50;;;;;;5032609;28;20810;-70
2023/12/15 11:55:40;;;;;;;4.70;3.47;;;8.30;2.20;;;;;;5029561;28;20429;-71
2023/12/15 11:58:06;;;;;;;5.63;3.73;;;8.20;2.30;;;;;;5028389;28;20464;-70
2023/12/15 12:00:32;;;;;;;9.00;4.30;;;8.20;1.60;;;;;;5029057;28;20425;-70
2023/12/15 12:02:58;;;;;;;4.70;3.50;;;8.10;1.80;;;;;;5029315;28;20187;-69
2023/12/15 12:05:26;;;;;;;7.27;4.07;;;7.90;2.40;;;;;;5028729;28;20567;-69
2023/12/15 12:07:52;;;;;;;5.70;3.83;;;8.10;3.50;;;;;;5028784;28;20468;-70
2023/12/15 12:10:18;;;;;;;6.40;4.17;;;8.10;1.80;;;;;;5028700;28;20475;-69
2023/12/15 12:12:43;;;;;;;5.63;3.07;;;8.00;2.10;;;;;;5029097;28;20654;-69
2023/12/15 12:15:10;;;;;;;5.70;4.13;;;7.90;2.40;;;;;;5028732;28;20190;-70
2023/12/15 12:17:39;;;;;;;7.13;3.93;;;8.00;3.50;;;;;;5027775;28;20325;-70
2023/12/15 12:20:13;;;;;;;5.10;3.43;;;8.20;2.20;;;;;;5027828;28;20433;-69
2023/12/15 12:22:43;;;;;;;6.37;4.07;;;8.30;1.80;;;;;;5028215;28;21002;-69
2023/12/15 12:25:13;;;;;;;6.07;3.40;;;8.30;1.00;;;;;;5028907;28;20504;-69
2023/12/15 12:27:40;;;;;;;6.37;3.03;;;8.40;1.00;;;;;;5028349;28;20719;-71
2023/12/15 12:30:14;;;;;;;6.37;3.80;;;8.30;1.00;;;;;;5027971;28;20432;-71
2023/12/15 12:32:40;;;;;;;6.50;3.90;;;8.40;1.00;;;;;;5027951;28;20513;-69
2023/12/15 12:35:06;;;;;;;4.37;3.17;;;8.30;1.00;;;;;;5028268;28;20445;-71
2023/12/15 12:37:32;;;;;;;5.10;3.70;;;8.20;1.00;;;;;;5027672;28;20806;-72
2023/12/15 12:39:58;;;;;;;5.07;3.73;;;8.40;1.00;;;;;;5027658;28;20520;-72
2023/12/15 12:42:26;;;;;;;5.03;3.30;;;8.80;1.00;;;;;;5028331;28;20436;-71
2023/12/15 12:44:54;;;;;;;5.43;3.67;;;8.80;1.00;;;;;;5009682;28;20429;-71
2023/12/15 12:47:20;;;;;;;5.30;3.70;;;8.90;1.00;;;;;;5027023;28;20480;-72
2023/12/15 12:49:46;;;;;;;6.90;3.63;;;8.80;1.00;;;;;;5028474;28;20432;-72
2023/12/15 12:52:12;;;;;;;4.20;2.93;;;8.60;1.00;;;;;;5027710;28;20830;-72
2023/12/15 12:54:38;;;;;;;4.03;2.90;;;8.60;1.00;;;;;;5027789;28;20570;-71